createdAt,value
2018-07-05T00:00:14.711Z,0.00
2018-07-05T00:01:14.714Z,0.00
2018-07-05T00:02:14.712Z,0.00
2018-07-05T00:03:14.716Z,0.00
2018-07-05T00:04:14.718Z,0.00
2018-07-05T00:05:14.727Z,0.00
2018-07-05T00:06:14.730Z,0.00
2018-07-05T00:07:14.725Z,0.00
2018-07-05T00:08:14.728Z,0.00
2018-07-05T00:09:14.727Z,0.00
2018-07-05T00:10:14.729Z,0.00
2018-07-05T00:11:14.733Z,0.00
2018-07-05T00:12:14.736Z,0.00
2018-07-05T00:13:14.737Z,0.00
2018-07-05T00:14:14.735Z,0.00
2018-07-05T00:15:14.740Z,0.00
2018-07-05T00:16:14.743Z,0.00
2018-07-05T00:17:14.748Z,0.00
2018-07-05T00:18:14.749Z,0.00
2018-07-05T00:19:14.753Z,0.00
2018-07-05T00:20:14.754Z,0.00
2018-07-05T00:21:14.755Z,0.00
2018-07-05T00:22:14.758Z,0.00
2018-07-05T00:23:14.760Z,0.00
2018-07-05T00:24:14.767Z,0.00
2018-07-05T00:25:14.763Z,0.00
2018-07-05T00:26:14.766Z,0.00
2018-07-05T00:27:14.768Z,0.00
2018-07-05T00:28:14.775Z,0.00
2018-07-05T00:29:14.771Z,0.00
2018-07-05T00:30:14.779Z,0.00
2018-07-05T00:31:14.777Z,0.00
2018-07-05T00:32:14.782Z,0.00
2018-07-05T00:33:14.780Z,0.00
2018-07-05T00:34:14.784Z,0.00
2018-07-05T00:35:14.781Z,0.00
2018-07-05T00:36:14.788Z,0.00
2018-07-05T00:37:14.785Z,0.00
2018-07-05T00:38:14.789Z,0.00
2018-07-05T00:39:14.792Z,0.00
2018-07-05T00:40:14.795Z,0.00
2018-07-05T00:41:14.794Z,0.00
2018-07-05T00:42:14.803Z,0.00
2018-07-05T00:43:14.800Z,0.00
2018-07-05T00:44:14.803Z,0.00
2018-07-05T00:45:14.808Z,0.00
2018-07-05T00:46:14.809Z,0.00
2018-07-05T00:47:14.809Z,0.00
2018-07-05T00:48:14.816Z,0.00
2018-07-05T00:49:14.813Z,0.00
2018-07-05T00:50:14.862Z,0.00
2018-07-05T00:51:14.815Z,0.00
2018-07-05T00:52:14.817Z,0.00
2018-07-05T00:53:14.820Z,0.00
2018-07-05T00:54:14.825Z,0.00
2018-07-05T00:55:14.825Z,0.00
2018-07-05T00:56:14.823Z,0.00
2018-07-05T00:57:14.824Z,0.00
2018-07-05T00:58:14.823Z,0.00
2018-07-05T00:59:14.828Z,0.00
2018-07-05T01:00:14.832Z,0.00
2018-07-05T01:01:14.831Z,0.00
2018-07-05T01:02:14.834Z,0.00
2018-07-05T01:03:14.839Z,0.00
2018-07-05T01:04:14.837Z,0.00
2018-07-05T01:05:14.840Z,0.00
2018-07-05T01:06:14.845Z,0.00
2018-07-05T01:07:14.842Z,0.00
2018-07-05T01:08:14.846Z,0.00
2018-07-05T01:09:14.846Z,0.00
2018-07-05T01:10:14.850Z,0.00
2018-07-05T01:11:14.859Z,0.00
2018-07-05T01:12:14.852Z,0.00
2018-07-05T01:13:14.853Z,0.00
2018-07-05T01:14:14.856Z,0.00
2018-07-05T01:15:14.857Z,0.00
2018-07-05T01:16:14.858Z,0.00
2018-07-05T01:17:14.864Z,0.00
2018-07-05T01:18:14.858Z,0.00
2018-07-05T01:19:14.861Z,0.00
2018-07-05T01:20:14.866Z,0.00
2018-07-05T01:21:14.864Z,0.00
2018-07-05T01:22:14.868Z,0.00
2018-07-05T01:23:14.871Z,0.00
2018-07-05T01:24:14.872Z,0.00
2018-07-05T01:25:14.872Z,0.00
2018-07-05T01:26:14.872Z,0.00
2018-07-05T01:27:14.876Z,0.00
2018-07-05T01:28:14.880Z,0.00
2018-07-05T01:29:14.879Z,0.00
2018-07-05T01:30:14.883Z,0.00
2018-07-05T01:31:14.883Z,0.00
2018-07-05T01:32:14.885Z,0.00
2018-07-05T01:33:14.888Z,0.00
2018-07-05T01:34:14.895Z,0.00
2018-07-05T01:35:14.889Z,0.00
2018-07-05T01:36:14.895Z,0.00
2018-07-05T01:37:14.892Z,0.00
2018-07-05T01:38:14.891Z,0.00
2018-07-05T01:39:14.899Z,0.00
2018-07-05T01:40:14.898Z,0.00
2018-07-05T01:41:14.898Z,0.00
2018-07-05T01:42:14.902Z,0.00
2018-07-05T01:43:14.902Z,0.00
2018-07-05T01:44:14.903Z,0.00
2018-07-05T01:45:14.909Z,0.00
2018-07-05T01:46:14.908Z,0.00
2018-07-05T01:47:14.909Z,0.00
2018-07-05T01:48:14.912Z,0.00
2018-07-05T01:49:14.911Z,0.00
2018-07-05T01:50:14.914Z,0.00
2018-07-05T01:51:14.914Z,0.00
2018-07-05T01:52:14.916Z,0.00
2018-07-05T01:53:14.917Z,0.00
2018-07-05T01:54:14.917Z,0.00
2018-07-05T01:55:14.920Z,0.00
2018-07-05T01:56:14.922Z,0.00
2018-07-05T01:57:14.922Z,0.00
2018-07-05T01:58:14.922Z,0.00
2018-07-05T01:59:14.925Z,0.00
2018-07-05T02:00:14.926Z,0.00
2018-07-05T02:01:14.931Z,0.00
2018-07-05T02:02:14.930Z,0.00
2018-07-05T02:03:14.932Z,0.00
2018-07-05T02:04:14.933Z,0.00
2018-07-05T02:05:14.934Z,0.00
2018-07-05T02:06:14.937Z,4.00
2018-07-05T02:07:14.936Z,4.00
2018-07-05T02:08:14.939Z,0.00
2018-07-05T02:09:14.942Z,0.00
2018-07-05T02:10:14.942Z,0.00
2018-07-05T02:11:14.943Z,4.00
2018-07-05T02:12:14.948Z,4.00
2018-07-05T02:13:14.945Z,0.00
2018-07-05T02:14:14.948Z,4.00
2018-07-05T02:15:14.944Z,4.00
2018-07-05T02:16:14.948Z,4.00
2018-07-05T02:17:14.948Z,4.00
2018-07-05T02:18:14.952Z,4.00
2018-07-05T02:19:14.955Z,8.00
2018-07-05T02:20:14.955Z,4.00
2018-07-05T02:21:14.955Z,4.00
2018-07-05T02:22:14.960Z,8.00
2018-07-05T02:23:14.960Z,8.00
2018-07-05T02:24:14.961Z,12.00
2018-07-05T02:25:14.964Z,12.00
2018-07-05T02:26:14.963Z,12.00
2018-07-05T02:27:14.969Z,12.00
2018-07-05T02:28:14.967Z,16.00
2018-07-05T02:29:14.966Z,20.00
2018-07-05T02:30:14.968Z,20.00
2018-07-05T02:31:14.972Z,24.00
2018-07-05T02:32:14.972Z,24.00
2018-07-05T02:33:14.978Z,28.00
2018-07-05T02:34:14.974Z,28.00
2018-07-05T02:35:14.975Z,32.00
2018-07-05T02:36:14.975Z,32.00
2018-07-05T02:37:14.977Z,36.00
2018-07-05T02:38:14.980Z,44.00
2018-07-05T02:39:14.981Z,44.00
2018-07-05T02:40:14.983Z,48.00
2018-07-05T02:41:14.982Z,52.00
2018-07-05T02:42:14.982Z,56.00
2018-07-05T02:43:14.986Z,64.00
2018-07-05T02:44:14.988Z,64.00
2018-07-05T02:45:14.988Z,72.00
2018-07-05T02:46:14.989Z,76.00
2018-07-05T02:47:14.993Z,88.00
2018-07-05T02:48:14.992Z,92.00
2018-07-05T02:49:14.993Z,100.00
2018-07-05T02:50:14.995Z,108.00
2018-07-05T02:51:14.996Z,112.00
2018-07-05T02:52:14.998Z,124.00
2018-07-05T02:53:14.999Z,132.00
2018-07-05T02:54:14.994Z,140.00
2018-07-05T02:55:15.007Z,148.00
2018-07-05T02:56:15.002Z,160.00
2018-07-05T02:57:15.002Z,172.00
2018-07-05T02:58:15.004Z,184.00
2018-07-05T02:59:15.008Z,192.00
2018-07-05T03:00:15.008Z,204.00
2018-07-05T03:01:15.008Z,216.00
2018-07-05T03:02:15.009Z,232.00
2018-07-05T03:03:15.011Z,248.00
2018-07-05T03:04:15.015Z,260.00
2018-07-05T03:05:15.013Z,280.00
2018-07-05T03:06:15.021Z,292.00
2018-07-05T03:07:15.016Z,316.00
2018-07-05T03:08:15.017Z,340.00
2018-07-05T03:09:15.020Z,368.00
2018-07-05T03:10:15.021Z,384.00
2018-07-05T03:11:15.026Z,400.00
2018-07-05T03:12:15.024Z,428.00
2018-07-05T03:13:15.022Z,452.00
2018-07-05T03:14:15.026Z,468.00
2018-07-05T03:15:15.027Z,476.00
2018-07-05T03:16:15.028Z,476.00
2018-07-05T03:17:15.026Z,476.00
2018-07-05T03:18:15.032Z,480.00
2018-07-05T03:19:15.033Z,496.00
2018-07-05T03:20:15.037Z,516.00
2018-07-05T03:21:15.034Z,548.00
2018-07-05T03:22:15.037Z,588.00
2018-07-05T03:23:15.045Z,632.00
2018-07-05T03:24:15.040Z,660.00
2018-07-05T03:25:15.045Z,684.00
2018-07-05T03:26:15.042Z,712.00
2018-07-05T03:27:15.043Z,744.00
2018-07-05T03:28:15.048Z,784.00
2018-07-05T03:29:15.044Z,812.00
2018-07-05T03:30:15.049Z,844.00
2018-07-05T03:31:15.055Z,876.00
2018-07-05T03:32:15.051Z,924.00
2018-07-05T03:33:15.050Z,992.00
2018-07-05T03:34:15.051Z,1072.00
2018-07-05T03:35:15.055Z,1116.00
2018-07-05T03:36:15.055Z,1140.00
2018-07-05T03:37:15.060Z,1176.00
2018-07-05T03:38:15.059Z,1216.00
2018-07-05T03:39:15.059Z,1276.00
2018-07-05T03:40:15.061Z,1340.00
2018-07-05T03:41:15.062Z,1384.00
2018-07-05T03:42:15.068Z,1420.00
2018-07-05T03:43:15.065Z,1488.00
2018-07-05T03:44:15.070Z,1556.00
2018-07-05T03:45:15.067Z,1632.00
2018-07-05T03:46:15.071Z,1688.00
2018-07-05T03:47:15.076Z,1724.00
2018-07-05T03:48:15.074Z,1676.00
2018-07-05T03:49:15.075Z,1820.00
2018-07-05T03:50:15.080Z,2008.00
2018-07-05T03:51:15.078Z,2128.00
2018-07-05T03:52:15.078Z,2256.00
2018-07-05T03:53:15.079Z,2360.00
2018-07-05T03:54:15.084Z,2444.00
2018-07-05T03:55:15.085Z,2520.00
2018-07-05T03:56:15.088Z,2580.00
2018-07-05T03:57:15.089Z,2668.00
2018-07-05T03:58:15.095Z,2804.00
2018-07-05T03:59:15.093Z,2948.00
2018-07-05T04:00:15.095Z,3072.00
2018-07-05T04:01:15.124Z,3204.00
2018-07-05T04:02:15.098Z,3340.00
2018-07-05T04:03:15.102Z,3508.00
2018-07-05T04:04:15.106Z,3632.00
2018-07-05T04:05:15.108Z,3716.00
2018-07-05T04:06:15.108Z,3788.00
2018-07-05T04:07:15.115Z,3844.00
2018-07-05T04:08:15.168Z,3888.00
2018-07-05T04:09:15.117Z,3920.00
2018-07-05T04:10:15.119Z,3880.00
2018-07-05T04:11:15.124Z,3884.00
2018-07-05T04:12:15.124Z,3920.00
2018-07-05T04:13:15.124Z,4012.00
2018-07-05T04:14:15.122Z,4112.00
2018-07-05T04:15:15.127Z,4204.00
2018-07-05T04:16:15.132Z,4296.00
2018-07-05T04:17:15.136Z,4388.00
2018-07-05T04:18:15.141Z,4504.00
2018-07-05T04:19:15.142Z,4532.00
2018-07-05T04:20:15.143Z,4616.00
2018-07-05T04:21:15.148Z,4604.00
2018-07-05T04:22:15.150Z,4572.00
2018-07-05T04:23:15.154Z,4544.00
2018-07-05T04:24:15.170Z,4504.00
2018-07-05T04:25:15.160Z,4500.00
2018-07-05T04:26:15.167Z,4528.00
2018-07-05T04:27:15.171Z,4528.00
2018-07-05T04:28:15.171Z,3480.00
2018-07-05T04:29:15.173Z,3336.00
2018-07-05T04:30:15.178Z,3268.00
2018-07-05T04:31:15.181Z,3324.00
2018-07-05T04:32:15.186Z,4080.00
2018-07-05T04:33:15.186Z,4416.00
2018-07-05T04:34:15.253Z,4704.00
2018-07-05T04:35:15.195Z,4812.00
2018-07-05T04:36:15.197Z,4748.00
2018-07-05T04:37:15.201Z,4304.00
2018-07-05T04:38:15.204Z,3668.00
2018-07-05T04:39:15.212Z,3664.00
2018-07-05T04:40:15.212Z,3612.00
2018-07-05T04:41:15.216Z,3744.00
2018-07-05T04:42:15.217Z,4476.00
2018-07-05T04:43:15.223Z,3680.00
2018-07-05T04:44:15.221Z,3656.00
2018-07-05T04:45:15.227Z,4788.00
2018-07-05T04:46:15.231Z,4912.00
2018-07-05T04:47:15.236Z,4944.00
2018-07-05T04:48:15.241Z,3820.00
2018-07-05T04:49:15.243Z,4500.00
2018-07-05T04:50:15.247Z,3896.00
2018-07-05T04:51:15.248Z,3848.00
2018-07-05T04:52:15.255Z,3820.00
2018-07-05T04:53:15.261Z,3944.00
2018-07-05T04:54:15.265Z,4036.00
2018-07-05T04:55:15.267Z,4124.00
2018-07-05T04:56:15.272Z,4176.00
2018-07-05T04:57:15.274Z,4200.00
2018-07-05T04:58:15.277Z,4256.00
2018-07-05T04:59:15.282Z,4148.00
2018-07-05T05:00:15.288Z,4188.00
2018-07-05T05:01:15.288Z,4244.00
2018-07-05T05:02:15.294Z,5260.00
2018-07-05T05:03:15.298Z,5700.00
2018-07-05T05:04:15.301Z,5476.00
2018-07-05T05:05:15.329Z,4520.00
2018-07-05T05:06:15.318Z,4140.00
2018-07-05T05:07:15.314Z,3504.00
2018-07-05T05:08:15.329Z,3424.00
2018-07-05T05:09:15.319Z,3464.00
2018-07-05T05:10:15.323Z,3608.00
2018-07-05T05:11:15.329Z,3908.00
2018-07-05T05:12:15.337Z,4396.00
2018-07-05T05:13:15.335Z,4932.00
2018-07-05T05:14:15.340Z,5440.00
2018-07-05T05:15:15.347Z,6052.00
2018-07-05T05:16:15.351Z,6652.00
2018-07-05T05:17:15.352Z,6224.00
2018-07-05T05:18:15.356Z,6028.00
2018-07-05T05:19:15.359Z,5876.00
2018-07-05T05:20:15.360Z,5808.00
2018-07-05T05:21:15.367Z,5656.00
2018-07-05T05:22:15.370Z,5220.00
2018-07-05T05:23:15.375Z,5012.00
2018-07-05T05:24:15.416Z,5184.00
2018-07-05T05:25:15.382Z,5028.00
2018-07-05T05:26:15.390Z,5112.00
2018-07-05T05:27:15.396Z,5308.00
2018-07-05T05:28:15.397Z,5700.00
2018-07-05T05:29:15.402Z,6072.00
2018-07-05T05:30:15.404Z,5392.00
2018-07-05T05:31:15.407Z,6132.00
2018-07-05T05:32:15.413Z,6508.00
2018-07-05T05:33:15.417Z,6744.00
2018-07-05T05:34:15.420Z,6952.00
2018-07-05T05:35:15.421Z,6960.00
2018-07-05T05:36:15.430Z,6728.00
2018-07-05T05:37:15.434Z,6324.00
2018-07-05T05:38:15.438Z,6016.00
2018-07-05T05:39:15.444Z,4432.00
2018-07-05T05:40:15.475Z,4492.00
2018-07-05T05:41:15.458Z,4884.00
2018-07-05T05:42:15.455Z,5796.00
2018-07-05T05:43:15.467Z,6412.00
2018-07-05T05:44:15.467Z,6916.00
2018-07-05T05:45:15.474Z,6972.00
2018-07-05T05:46:15.476Z,7068.00
2018-07-05T05:47:15.481Z,7040.00
2018-07-05T05:48:15.533Z,6856.00
2018-07-05T05:49:15.487Z,7232.00
2018-07-05T05:50:15.499Z,7208.00
2018-07-05T05:51:15.498Z,7180.00
2018-07-05T05:52:15.503Z,7140.00
2018-07-05T05:53:15.511Z,7232.00
2018-07-05T05:54:15.527Z,7372.00
2018-07-05T05:55:15.518Z,7556.00
2018-07-05T05:56:15.527Z,7692.00
2018-07-05T05:57:15.530Z,7816.00
2018-07-05T05:58:15.537Z,7936.00
2018-07-05T05:59:15.541Z,8016.00
2018-07-05T06:00:15.548Z,7932.00
2018-07-05T06:01:15.557Z,7708.00
2018-07-05T06:02:15.553Z,7468.00
2018-07-05T06:03:15.567Z,7324.00
2018-07-05T06:04:15.567Z,7292.00
2018-07-05T06:05:15.575Z,7336.00
2018-07-05T06:06:15.577Z,7424.00
2018-07-05T06:07:15.584Z,7524.00
2018-07-05T06:08:15.591Z,7548.00
2018-07-05T06:09:15.596Z,7584.00
2018-07-05T06:10:15.601Z,7628.00
2018-07-05T06:11:15.608Z,7628.00
2018-07-05T06:12:15.614Z,7648.00
2018-07-05T06:13:15.633Z,7716.00
2018-07-05T06:14:15.629Z,7744.00
2018-07-05T06:15:15.634Z,7712.00
2018-07-05T06:16:15.636Z,7712.00
2018-07-05T06:17:15.640Z,7756.00
2018-07-05T06:18:15.652Z,7920.00
2018-07-05T06:19:15.656Z,8024.00
2018-07-05T06:20:15.660Z,8096.00
2018-07-05T06:21:15.668Z,8176.00
2018-07-05T06:22:15.672Z,8260.00
2018-07-05T06:23:15.679Z,8272.00
2018-07-05T06:24:15.685Z,8312.00
2018-07-05T06:25:15.692Z,8288.00
2018-07-05T06:26:15.699Z,8316.00
2018-07-05T06:27:15.706Z,8396.00
2018-07-05T06:28:15.712Z,8524.00
2018-07-05T06:29:15.720Z,8668.00
2018-07-05T06:30:15.725Z,8736.00
2018-07-05T06:31:15.731Z,8820.00
2018-07-05T06:32:15.740Z,8860.00
2018-07-05T06:33:15.743Z,8812.00
2018-07-05T06:34:15.837Z,8768.00
2018-07-05T06:35:15.758Z,8772.00
2018-07-05T06:36:15.765Z,8868.00
2018-07-05T06:37:15.770Z,9044.00
2018-07-05T06:38:15.776Z,9092.00
2018-07-05T06:39:15.784Z,9056.00
2018-07-05T06:40:15.790Z,9056.00
2018-07-05T06:41:15.798Z,9136.00
2018-07-05T06:42:15.807Z,9228.00
2018-07-05T06:43:15.809Z,9304.00
2018-07-05T06:44:15.816Z,9440.00
2018-07-05T06:45:15.824Z,9684.00
2018-07-05T06:46:15.829Z,9864.00
2018-07-05T06:47:15.836Z,10072.00
2018-07-05T06:48:15.845Z,10292.00
2018-07-05T06:49:15.891Z,10508.00
2018-07-05T06:50:15.857Z,10684.00
2018-07-05T06:51:15.867Z,10872.00
2018-07-05T06:52:15.871Z,11260.00
2018-07-05T06:53:15.882Z,11676.00
2018-07-05T06:54:15.885Z,12352.00
2018-07-05T06:55:15.892Z,16192.00
2018-07-05T06:56:15.900Z,17888.00
2018-07-05T06:57:15.907Z,15136.00
2018-07-05T06:58:15.913Z,13728.00
2018-07-05T06:59:15.997Z,19744.00
2018-07-05T07:00:15.928Z,18816.00
2018-07-05T07:01:15.940Z,22400.00
2018-07-05T07:02:15.944Z,22400.00
2018-07-05T07:03:15.950Z,22112.00
2018-07-05T07:04:15.958Z,17248.00
2018-07-05T07:05:15.964Z,16864.00
2018-07-05T07:06:15.976Z,24000.00
2018-07-05T07:07:15.989Z,22240.00
2018-07-05T07:08:15.995Z,21696.00
2018-07-05T07:09:16.002Z,21760.00
2018-07-05T07:10:16.008Z,23520.00
2018-07-05T07:11:16.014Z,24064.00
2018-07-05T07:12:16.024Z,24608.00
2018-07-05T07:13:16.030Z,23456.00
2018-07-05T07:14:16.042Z,24320.00
2018-07-05T07:15:16.051Z,22400.00
2018-07-05T07:16:16.056Z,18720.00
2018-07-05T07:17:16.064Z,13288.00
2018-07-05T07:18:16.071Z,23136.00
2018-07-05T07:19:16.078Z,27520.00
2018-07-05T07:20:16.089Z,23776.00
2018-07-05T07:21:16.095Z,26336.00
2018-07-05T07:22:16.103Z,26816.00
2018-07-05T07:23:16.115Z,19296.00
2018-07-05T07:24:16.120Z,16928.00
2018-07-05T07:25:16.127Z,14996.00
2018-07-05T07:26:16.141Z,18816.00
2018-07-05T07:27:16.145Z,17344.00
2018-07-05T07:28:16.151Z,13032.00
2018-07-05T07:29:16.159Z,10924.00
2018-07-05T07:30:16.167Z,10360.00
2018-07-05T07:31:16.201Z,9872.00
2018-07-05T07:32:16.183Z,8784.00
2018-07-05T07:33:16.193Z,8676.00
2018-07-05T07:34:16.199Z,8828.00
2018-07-05T07:35:16.215Z,9696.00
2018-07-05T07:36:16.222Z,19680.00
2018-07-05T07:37:16.228Z,26240.00
2018-07-05T07:38:16.234Z,38336.00
2018-07-05T07:39:16.240Z,25952.00
2018-07-05T07:40:16.249Z,31936.00
2018-07-05T07:41:16.256Z,21760.00
2018-07-05T07:42:16.262Z,22944.00
2018-07-05T07:43:16.272Z,16192.00
2018-07-05T07:44:16.281Z,13620.00
2018-07-05T07:45:16.304Z,14228.00
2018-07-05T07:46:16.295Z,20416.00
2018-07-05T07:47:16.303Z,33024.00
2018-07-05T07:48:16.319Z,42080.00
2018-07-05T07:49:16.321Z,39264.00
2018-07-05T07:50:16.328Z,30560.00
2018-07-05T07:51:16.356Z,15148.00
2018-07-05T07:52:16.343Z,19776.00
2018-07-05T07:53:16.353Z,26016.00
2018-07-05T07:54:16.363Z,13620.00
2018-07-05T07:55:16.370Z,11492.00
2018-07-05T07:56:16.383Z,10588.00
2018-07-05T07:57:16.387Z,9024.00
2018-07-05T07:58:16.427Z,7724.00
2018-07-05T07:59:16.405Z,6920.00
2018-07-05T08:00:16.413Z,6692.00
2018-07-05T08:01:16.428Z,6568.00
2018-07-05T08:02:16.437Z,6888.00
2018-07-05T08:03:16.439Z,7476.00
2018-07-05T08:04:16.447Z,8024.00
2018-07-05T08:05:16.455Z,8496.00
2018-07-05T08:06:16.466Z,8320.00
2018-07-05T08:07:16.470Z,7848.00
2018-07-05T08:08:16.585Z,7336.00
2018-07-05T08:09:16.486Z,7044.00
2018-07-05T08:10:16.494Z,7120.00
2018-07-05T08:11:16.501Z,7224.00
2018-07-05T08:12:16.510Z,7396.00
2018-07-05T08:13:16.517Z,7736.00
2018-07-05T08:14:16.525Z,7960.00
2018-07-05T08:15:16.533Z,8600.00
2018-07-05T08:16:16.539Z,8384.00
2018-07-05T08:17:16.551Z,9028.00
2018-07-05T08:18:16.553Z,9104.00
2018-07-05T08:19:16.561Z,7608.00
2018-07-05T08:20:16.568Z,7080.00
2018-07-05T08:21:16.577Z,7208.00
2018-07-05T08:22:16.584Z,8016.00
2018-07-05T08:23:16.589Z,9416.00
2018-07-05T08:24:16.597Z,11300.00
2018-07-05T08:25:16.609Z,31104.00
2018-07-05T08:26:16.610Z,25696.00
2018-07-05T08:27:16.620Z,14732.00
2018-07-05T08:28:16.623Z,18272.00
2018-07-05T08:29:16.637Z,18816.00
2018-07-05T08:30:16.639Z,43456.00
2018-07-05T08:31:16.667Z,31040.00
2018-07-05T08:32:16.657Z,42432.00
2018-07-05T08:33:16.663Z,53216.00
2018-07-05T08:34:16.666Z,52640.00
2018-07-05T08:35:16.680Z,49792.00
2018-07-05T08:36:16.736Z,56000.00
2018-07-05T08:37:16.698Z,47136.00
2018-07-05T08:38:16.710Z,41920.00
2018-07-05T08:39:16.714Z,47840.00
2018-07-05T08:40:16.722Z,19008.00
2018-07-05T08:41:16.729Z,13332.00
2018-07-05T08:42:16.740Z,14324.00
2018-07-05T08:43:16.751Z,36896.00
2018-07-05T08:44:16.760Z,31968.00
2018-07-05T08:45:16.770Z,51904.00
2018-07-05T08:46:16.777Z,52896.00
2018-07-05T08:47:16.792Z,53120.00
2018-07-05T08:48:16.796Z,53504.00
2018-07-05T08:49:16.804Z,51840.00
2018-07-05T08:50:16.814Z,50496.00
2018-07-05T08:51:16.907Z,50016.00
2018-07-05T08:52:16.835Z,55648.00
2018-07-05T08:53:16.845Z,56576.00
2018-07-05T08:54:16.861Z,56160.00
2018-07-05T08:55:16.864Z,57088.00
2018-07-05T08:56:16.875Z,59008.00
2018-07-05T08:57:16.891Z,58208.00
2018-07-05T08:58:16.952Z,57408.00
2018-07-05T08:59:16.908Z,57888.00
2018-07-05T09:00:16.918Z,62112.00
2018-07-05T09:01:16.928Z,60640.00
2018-07-05T09:02:16.940Z,36832.00
2018-07-05T09:03:16.954Z,10964.00
2018-07-05T09:04:16.962Z,7804.00
2018-07-05T09:05:17.074Z,7720.00
2018-07-05T09:06:16.983Z,7608.00
2018-07-05T09:07:16.994Z,7380.00
2018-07-05T09:08:17.013Z,7188.00
2018-07-05T09:09:17.015Z,7008.00
2018-07-05T09:10:17.028Z,6876.00
2018-07-05T09:11:17.039Z,6824.00
2018-07-05T09:12:17.049Z,6800.00
2018-07-05T09:13:17.056Z,6784.00
2018-07-05T09:14:17.069Z,6780.00
2018-07-05T09:15:17.080Z,6700.00
2018-07-05T09:16:17.116Z,6588.00
2018-07-05T09:17:17.097Z,6520.00
2018-07-05T09:18:17.164Z,6512.00
2018-07-05T09:19:17.116Z,6552.00
2018-07-05T09:20:17.124Z,6640.00
2018-07-05T09:21:17.131Z,6620.00
2018-07-05T09:22:17.141Z,6484.00
2018-07-05T09:23:17.188Z,6348.00
2018-07-05T09:24:17.159Z,6276.00
2018-07-05T09:25:17.168Z,6224.00
2018-07-05T09:26:17.177Z,6224.00
2018-07-05T09:27:17.186Z,6232.00
2018-07-05T09:28:17.196Z,6236.00
2018-07-05T09:29:17.200Z,6216.00
2018-07-05T09:30:17.229Z,6188.00
2018-07-05T09:31:17.310Z,6204.00
2018-07-05T09:32:17.225Z,6256.00
2018-07-05T09:33:17.233Z,6248.00
2018-07-05T09:34:17.240Z,6200.00
2018-07-05T09:35:17.249Z,6196.00
2018-07-05T09:36:17.257Z,6192.00
2018-07-05T09:37:17.284Z,6184.00
2018-07-05T09:38:17.272Z,6132.00
2018-07-05T09:39:17.280Z,6116.00
2018-07-05T09:40:17.289Z,6148.00
2018-07-05T09:41:17.295Z,6216.00
2018-07-05T09:42:17.303Z,6316.00
2018-07-05T09:43:17.310Z,6400.00
2018-07-05T09:44:17.320Z,6464.00
2018-07-05T09:45:17.344Z,6460.00
2018-07-05T09:46:17.339Z,6352.00
2018-07-05T09:47:17.338Z,6216.00
2018-07-05T09:48:17.362Z,6064.00
2018-07-05T09:49:17.355Z,5988.00
2018-07-05T09:50:17.361Z,5928.00
2018-07-05T09:51:17.369Z,6056.00
2018-07-05T09:52:17.391Z,6464.00
2018-07-05T09:53:17.388Z,6820.00
2018-07-05T09:54:17.392Z,6852.00
2018-07-05T09:55:17.402Z,6800.00
2018-07-05T09:56:18.105Z,6940.00
2018-07-05T09:57:17.417Z,7088.00
2018-07-05T09:58:17.422Z,7552.00
2018-07-05T09:59:17.430Z,8388.00
2018-07-05T10:00:17.440Z,9172.00
2018-07-05T10:01:17.443Z,9588.00
2018-07-05T10:02:17.450Z,9588.00
2018-07-05T10:03:17.458Z,9508.00
2018-07-05T10:04:17.465Z,9584.00
2018-07-05T10:05:17.471Z,9604.00
2018-07-05T10:06:17.479Z,9560.00
2018-07-05T10:07:17.484Z,9488.00
2018-07-05T10:08:17.493Z,9124.00
2018-07-05T10:09:17.507Z,9096.00
2018-07-05T10:10:17.509Z,9132.00
2018-07-05T10:11:17.559Z,8800.00
2018-07-05T10:12:17.523Z,8504.00
2018-07-05T10:13:17.581Z,8484.00
2018-07-05T10:14:17.539Z,8644.00
2018-07-05T10:15:17.544Z,8632.00
2018-07-05T10:16:17.552Z,8908.00
2018-07-05T10:17:17.559Z,8592.00
2018-07-05T10:18:17.566Z,8100.00
2018-07-05T10:19:17.577Z,7252.00
2018-07-05T10:20:17.589Z,6616.00
2018-07-05T10:21:17.589Z,5916.00
2018-07-05T10:22:17.597Z,5720.00
2018-07-05T10:23:17.608Z,5840.00
2018-07-05T10:24:17.609Z,6128.00
2018-07-05T10:25:17.651Z,6392.00
2018-07-05T10:26:17.628Z,5932.00
2018-07-05T10:27:17.633Z,5472.00
2018-07-05T10:28:17.642Z,5380.00
2018-07-05T10:29:17.652Z,5380.00
2018-07-05T10:30:17.656Z,5420.00
2018-07-05T10:31:17.659Z,5632.00
2018-07-05T10:32:17.668Z,5756.00
2018-07-05T10:33:17.673Z,5840.00
2018-07-05T10:34:17.687Z,5716.00
2018-07-05T10:35:17.691Z,5536.00
2018-07-05T10:36:17.702Z,5592.00
2018-07-05T10:37:17.707Z,5372.00
2018-07-05T10:38:17.714Z,5372.00
2018-07-05T10:39:17.724Z,5180.00
2018-07-05T10:40:17.735Z,5124.00
2018-07-05T10:41:17.738Z,5332.00
2018-07-05T10:42:17.744Z,5448.00
2018-07-05T10:43:17.753Z,5456.00
2018-07-05T10:44:17.759Z,5508.00
2018-07-05T10:45:17.767Z,5408.00
2018-07-05T10:46:17.772Z,5492.00
2018-07-05T10:47:17.780Z,5656.00
2018-07-05T10:48:17.787Z,5976.00
2018-07-05T10:49:17.795Z,5880.00
2018-07-05T10:50:17.800Z,5612.00
2018-07-05T10:51:17.809Z,4908.00
2018-07-05T10:52:17.813Z,4608.00
2018-07-05T10:53:17.825Z,4400.00
2018-07-05T10:54:17.829Z,4312.00
2018-07-05T10:55:17.842Z,4544.00
2018-07-05T10:56:17.850Z,5140.00
2018-07-05T10:57:17.852Z,5600.00
2018-07-05T10:58:17.859Z,5700.00
2018-07-05T10:59:17.867Z,5196.00
2018-07-05T11:00:17.873Z,4656.00
2018-07-05T11:01:17.886Z,4300.00
2018-07-05T11:02:17.887Z,4320.00
2018-07-05T11:03:17.943Z,4528.00
2018-07-05T11:04:17.948Z,4524.00
2018-07-05T11:05:17.905Z,4376.00
2018-07-05T11:06:17.985Z,4328.00
2018-07-05T11:07:18.703Z,4348.00
2018-07-05T11:08:17.931Z,4364.00
2018-07-05T11:09:17.937Z,4328.00
2018-07-05T11:10:17.944Z,4076.00
2018-07-05T11:11:17.959Z,4108.00
2018-07-05T11:12:17.959Z,4076.00
2018-07-05T11:13:17.965Z,4228.00
2018-07-05T11:14:17.978Z,4288.00
2018-07-05T11:15:17.974Z,4200.00
2018-07-05T11:16:18.028Z,4176.00
2018-07-05T11:17:17.994Z,4072.00
2018-07-05T11:18:18.002Z,4208.00
2018-07-05T11:19:18.009Z,4356.00
2018-07-05T11:20:18.018Z,4496.00
2018-07-05T11:21:18.024Z,4532.00
2018-07-05T11:22:18.033Z,4640.00
2018-07-05T11:23:18.039Z,4792.00
2018-07-05T11:24:18.045Z,4788.00
2018-07-05T11:25:18.051Z,4384.00
2018-07-05T11:26:18.057Z,4020.00
2018-07-05T11:27:18.064Z,3864.00
2018-07-05T11:28:18.070Z,3684.00
2018-07-05T11:29:18.077Z,3900.00
2018-07-05T11:30:18.131Z,4052.00
2018-07-05T11:31:18.093Z,4076.00
2018-07-05T11:32:18.100Z,3880.00
2018-07-05T11:33:18.107Z,3664.00
2018-07-05T11:34:18.114Z,3564.00
2018-07-05T11:35:18.121Z,3580.00
2018-07-05T11:36:18.135Z,3652.00
2018-07-05T11:37:18.135Z,3732.00
2018-07-05T11:38:18.140Z,3788.00
2018-07-05T11:39:18.148Z,3820.00
2018-07-05T11:40:18.158Z,3836.00
2018-07-05T11:41:18.162Z,3812.00
2018-07-05T11:42:18.175Z,3768.00
2018-07-05T11:43:18.176Z,3736.00
2018-07-05T11:44:18.186Z,3712.00
2018-07-05T11:45:18.191Z,3704.00
2018-07-05T11:46:18.197Z,3708.00
2018-07-05T11:47:18.205Z,3720.00
2018-07-05T11:48:18.215Z,3776.00
2018-07-05T11:49:18.221Z,3776.00
2018-07-05T11:50:18.225Z,3760.00
2018-07-05T11:51:18.235Z,3764.00
2018-07-05T11:52:18.282Z,3772.00
2018-07-05T11:53:18.248Z,3780.00
2018-07-05T11:54:18.255Z,3776.00
2018-07-05T11:55:18.264Z,3832.00
2018-07-05T11:56:18.269Z,3788.00
2018-07-05T11:57:18.276Z,3744.00
2018-07-05T11:58:18.283Z,3700.00
2018-07-05T11:59:18.294Z,3648.00
2018-07-05T12:00:18.298Z,3628.00
2018-07-05T12:01:18.303Z,3632.00
2018-07-05T12:02:18.313Z,3652.00
2018-07-05T12:03:18.314Z,3844.00
2018-07-05T12:04:18.324Z,4516.00
2018-07-05T12:05:18.329Z,4308.00
2018-07-05T12:06:18.337Z,4344.00
2018-07-05T12:07:18.351Z,4408.00
2018-07-05T12:08:18.357Z,4204.00
2018-07-05T12:09:18.360Z,3980.00
2018-07-05T12:10:18.365Z,3816.00
2018-07-05T12:11:18.379Z,3728.00
2018-07-05T12:12:18.384Z,3724.00
2018-07-05T12:13:18.395Z,3700.00
2018-07-05T12:14:18.396Z,3680.00
2018-07-05T12:15:18.412Z,3664.00
2018-07-05T12:16:18.413Z,3668.00
2018-07-05T12:17:18.418Z,3784.00
2018-07-05T12:18:18.437Z,3972.00